Weather at Ithaca Tompkins Regional Airport

Public forecast

Using degrees Fahrenheit for public forecast. Weather courtesy of forecast.io.

Current aviation weather report (METAR) for Ithaca Tompkins Regional Airport

Retrieved 2020/10/27 19:56 UTC (1 hour ago):

KITH 271956Z 27004KT 10SM OVC032 08/04 A3015 RMK AO2 SLP215 T00830039

Aviation forecast (TAF) for Ithaca Tompkins Regional Airport

Retrieved 2020/10/27 18:33 UTC (2 hours ago):

TAF KITH 271731Z 2718/2818 VRB03KT P6SM BKN035 FM272230 VRB03KT 5SM -RA BR OVC018 FM280200 16003KT P6SM OVC015 FM281400 23005KT P6SM BKN018 FM281700 25007KT P6SM SCT030